Aérodrome de Gaillac - Lisle-sur-Tarn

LFDG

August 11, 2022

Time Code Weather Temp. Visibility Ceiling Wind METAR/SPECI
20:00
V
32 °C 10 km+ - 130° 130° 13 kt METAR LFCK 111800Z AUTO 13013KT CAVOK 32/19 Q1014 NOSIG
19:30
V
33 °C 10 km+ - 130° 130° 16 kt METAR LFCK 111730Z AUTO 13016KT CAVOK 33/18 Q1014 NOSIG
19:00
V
33 °C 10 km+ - 120° 120° 14 kt METAR LFCK 111700Z AUTO 12014KT CAVOK 33/18 Q1013 NOSIG
18:30
V
34 °C 10 km+ - 120° 120° 13 kt METAR LFCK 111630Z AUTO 12013KT CAVOK 34/18 Q1013 NOSIG
18:00
V
35 °C 10 km+ - 120° 120° 15 kt METAR LFCK 111600Z AUTO 12015KT 080V140 CAVOK 35/18 Q1014 NOSIG
17:30
V
36 °C 10 km+ - 130° 130° 13 kt METAR LFCK 111530Z AUTO 13013KT CAVOK 36/18 Q1014 NOSIG
17:00
V
36 °C 10 km+ - 120° 120° 12 kt METAR LFCK 111500Z AUTO 12012KT 090V150 CAVOK 36/17 Q1014 NOSIG
16:30
V
36 °C 10 km+ - 120° 120° 10 kt METAR LFCK 111430Z AUTO 12010KT 090V170 CAVOK 36/15 Q1014 NOSIG
16:00
V
36 °C 10 km+ - 120° 120° 11 kt METAR LFCK 111400Z AUTO 12011KT 080V150 CAVOK 36/17 Q1014 NOSIG
15:30
V
35 °C 10 km+ - 130° 130° 11 kt METAR LFCK 111330Z AUTO 13011KT 090V150 CAVOK 35/18 Q1015 NOSIG
15:00
V
35 °C 10 km+ - 120° 120° 11 kt METAR LFCK 111300Z AUTO 12011KT 090V150 CAVOK 35/18 Q1015 NOSIG
14:30
V
35 °C 10 km+ - 130° 130° 11 kt METAR LFCK 111230Z AUTO 13011KT 100V160 CAVOK 35/18 Q1016 NOSIG
14:00
V
34 °C 10 km+ - 120° 120° 11 kt METAR LFCK 111200Z AUTO 12011KT 090V150 CAVOK 34/18 Q1016 NOSIG
13:30
V
33 °C 10 km+ - 120° 120° 12 kt METAR LFCK 111130Z AUTO 12012KT 090V150 CAVOK 33/18 Q1016 NOSIG
13:00
V
33 °C 10 km+ - 110° 110° 12 kt METAR LFCK 111100Z AUTO 11012KT 090V150 CAVOK 33/18 Q1016 NOSIG
12:30
V
32 °C 10 km+ - 110° 110° 13 kt METAR LFCK 111030Z AUTO 11013KT 080V160 CAVOK 32/19 Q1016 TEMPO VRB03KT
12:00
V
32 °C 10 km+ - 110° 110° 13 kt METAR LFCK 111000Z AUTO 11013KT CAVOK 32/19 Q1017 TEMPO VRB03KT
11:30
V
30 °C 10 km+ - 120° 120° 13 kt METAR LFCK 110930Z AUTO 12013KT 090V150 CAVOK 30/19 Q1017 TEMPO VRB03KT
11:00
V
30 °C 10 km+ - 120° 120° 16 kt METAR LFCK 110900Z AUTO 12016KT CAVOK 30/19 Q1017 TEMPO VRB03KT
10:30
V
28 °C 10 km+ - 100° 100° 15 kt METAR LFCK 110830Z AUTO 10015KT CAVOK 28/19 Q1017 TEMPO VRB03KT
10:00
V
28 °C 10 km+ - 110° 110° 14 kt METAR LFCK 110800Z AUTO 11014KT CAVOK 28/19 Q1017 TEMPO 12016G26KT
09:30
V
27 °C 10 km+ - 110° 110° 13 kt METAR LFCK 110730Z AUTO 11013KT CAVOK 27/19 Q1017 TEMPO 12016G26KT
09:00
V
26 °C 10 km+ - 100° 100° 8 kt METAR LFCK 110700Z AUTO 10008KT 060V140 CAVOK 26/16 Q1017 TEMPO 12016G26KT
08:30
V
26 °C 10 km+ - 120° 120° 6 kt METAR LFCK 110630Z AUTO 12006KT 100V160 CAVOK 26/18 Q1017 TEMPO 12016G26KT
08:00
V
25 °C 10 km+ - 120° 120° 7 kt METAR LFCK 110600Z AUTO 12007KT 090V150 CAVOK 25/18 Q1017 TEMPO 12016G26KT
07:30
V
24 °C 10 km+ - 130° 130° 8 kt METAR LFCK 110530Z AUTO 13008KT CAVOK 24/18 Q1016 TEMPO 12016G26KT
07:00
V
24 °C 10 km+ - 110° 110° 12 kt METAR LFCK 110500Z AUTO 11012KT CAVOK 24/18 Q1016
06:30
V
24 °C 10 km+ - 110° 110° 14 kt METAR LFCK 110430Z AUTO 11014KT CAVOK 24/18 Q1016
06:00
V
25 °C 10 km+ - 110° 110° 13 kt METAR LFCK 110400Z AUTO 11013KT CAVOK 25/17 Q1016
05:30
V
25 °C 10 km+ - 110° 110° 12 kt METAR LFCK 110330Z AUTO 11012KT CAVOK 25/16 Q1016
05:00
V
25 °C 10 km+ - 110° 110° 13 kt METAR LFCK 110300Z AUTO 11013KT CAVOK 25/15 Q1016
04:30
V
25 °C 10 km+ - 100° 100° 12 kt METAR LFCK 110230Z AUTO 10012KT CAVOK 25/14 Q1016
04:00
V
25 °C 10 km+ - 110° 110° 9 kt METAR LFCK 110200Z AUTO 11009KT CAVOK 25/15 Q1016
03:30
V
25 °C 10 km+ - 100° 100° 11 kt METAR LFCK 110130Z AUTO 10011KT CAVOK 25/16 Q1015
03:00
V
25 °C 10 km+ - 100° 100° 11 kt METAR LFCK 110100Z AUTO 10011KT CAVOK 25/16 Q1015
02:30
V
25 °C 10 km+ - 110° 110° 10 kt METAR LFCK 110030Z AUTO 11010KT CAVOK 25/15 Q1015
02:00
V
25 °C 10 km+ - 110° 110° 10 kt METAR LFCK 110000Z AUTO 11010KT CAVOK 25/15 Q1015
01:30
V
26 °C 10 km+ - 110° 110° 12 kt METAR LFCK 102330Z AUTO 11012KT CAVOK 26/15 Q1015
01:00
V
25 °C 10 km+ - 110° 110° 10 kt METAR LFCK 102300Z AUTO 11010KT CAVOK 25/15 Q1016
00:30
V
25 °C 10 km+ - 120° 120° 9 kt METAR LFCK 102230Z AUTO 12009KT CAVOK 25/15 Q1016
00:00
V
27 °C 10 km+ - 110° 110° 9 kt METAR LFCK 102200Z AUTO 11009KT CAVOK 27/14 Q1016

August 10, 2022

Time Code Weather Temp. Visibility Ceiling Wind METAR/SPECI
23:30
V
27 °C 10 km+ - 120° 120° 12 kt METAR LFCK 102130Z AUTO 12012KT CAVOK 27/15 Q1016
23:00
V
27 °C 10 km+ - 120° 120° 12 kt METAR LFCK 102100Z AUTO 12012KT CAVOK 27/15 Q1016 NOSIG
22:30
V
27 °C 10 km+ - 110° 110° 13 kt METAR LFCK 102030Z AUTO 11013KT CAVOK 27/15 Q1016 NOSIG
22:00
V
28 °C 10 km+ - 120° 120° 13 kt METAR LFCK 102000Z AUTO 12013KT CAVOK 28/15 Q1016 NOSIG
21:30
V
29 °C 10 km+ - 120° 120° 12 kt METAR LFCK 101930Z AUTO 12012KT CAVOK 29/13 Q1016 NOSIG
21:00
V
30 °C 10 km+ - 130° 130° 11 kt METAR LFCK 101900Z AUTO 13011KT CAVOK 30/12 Q1016 NOSIG
20:30
V
31 °C 10 km+ - 130° 130° 11 kt METAR LFCK 101830Z AUTO 13011KT CAVOK 31/11 Q1015 NOSIG
20:00
V
32 °C 10 km+ - 140° 140° 12 kt METAR LFCK 101800Z AUTO 14012KT CAVOK 32/11 Q1015 NOSIG
19:30
V
33 °C 10 km+ - 150° 150° 13 kt METAR LFCK 101730Z AUTO 15013KT CAVOK 33/12 Q1015 NOSIG
19:00
V
34 °C 10 km+ - 140° 140° 14 kt METAR LFCK 101700Z AUTO 14014KT CAVOK 34/12 Q1015 NOSIG
18:30
V
35 °C 10 km+ - 150° 150° 12 kt METAR LFCK 101630Z AUTO 15012KT 120V180 CAVOK 35/13 Q1015 NOSIG
18:00
V
36 °C 10 km+ - 170° 170° 9 kt METAR LFCK 101600Z AUTO 17009KT 130V200 CAVOK 36/11 Q1015 NOSIG
17:30
V
37 °C 10 km+ - 130° 130° 10 kt METAR LFCK 101530Z AUTO 13010KT 100V170 CAVOK 37/10 Q1015 NOSIG
17:00
V
37 °C 10 km+ - 170° 170° 6 kt METAR LFCK 101500Z AUTO 17006KT 130V270 CAVOK 37/10 Q1015 NOSIG
16:30
V
37 °C 10 km+ - Var Var 5 kt METAR LFCK 101430Z AUTO VRB05KT CAVOK 37/10 Q1016 NOSIG
16:00
V
37 °C 10 km+ - 140° 140° 6 kt METAR LFCK 101400Z AUTO 14006KT 080V240 CAVOK 37/09 Q1016 NOSIG
15:30
V
36 °C 10 km+ - 180° 180° 7 kt METAR LFCK 101330Z AUTO 18007KT 120V250 CAVOK 36/10 Q1016 NOSIG
15:00
V
37 °C 10 km+ - 130° 130° 10 kt METAR LFCK 101300Z AUTO 13010KT 090V190 CAVOK 37/09 Q1016 NOSIG
14:30
V
37 °C 10 km+ - 140° 140° 8 kt METAR LFCK 101230Z AUTO 14008KT 100V170 CAVOK 37/10 Q1016 NOSIG
14:00
V
36 °C 10 km+ - 150° 150° 7 kt METAR LFCK 101200Z AUTO 15007KT 120V210 CAVOK 36/09 Q1017 NOSIG
13:30
V
36 °C 10 km+ - Var Var 7 kt METAR LFCK 101130Z AUTO VRB07KT CAVOK 36/09 Q1017 NOSIG
13:00
V
35 °C 10 km+ - Var Var 4 kt METAR LFCK 101100Z AUTO VRB04KT CAVOK 35/09 Q1017 NOSIG
12:30
V
35 °C 10 km+ - 180° 180° 4 kt METAR LFCK 101030Z AUTO 18004KT 100V240 CAVOK 35/09 Q1017 NOSIG
12:00
V
35 °C 10 km+ - Var Var 3 - 13 kt METAR LFCK 101000Z AUTO VRB03G13KT CAVOK 35/09 Q1018 NOSIG
11:30
V
34 °C 10 km+ - Var Var 3 kt METAR LFCK 100930Z AUTO VRB03KT CAVOK 34/10 Q1018 NOSIG
11:00
V
33 °C 10 km+ - 100° 100° 5 kt METAR LFCK 100900Z AUTO 10005KT 040V130 CAVOK 33/09 Q1018 NOSIG
10:30
V
30 °C 10 km+ - Var Var 3 kt METAR LFCK 100830Z AUTO VRB03KT CAVOK 30/10 Q1018 NOSIG
10:00
V
28 °C 10 km+ - 280° 280° 4 kt METAR LFCK 100800Z AUTO 28004KT CAVOK 28/11 Q1018 NOSIG
09:30
V
26 °C 10 km+ - Var Var 3 kt METAR LFCK 100730Z AUTO VRB03KT CAVOK 26/11 Q1018 NOSIG
09:00
V
24 °C 10 km+ - Var Var 2 kt METAR LFCK 100700Z AUTO VRB02KT CAVOK 24/10 Q1018 NOSIG
08:30
V
22 °C 10 km+ - Var 000° 0 kt METAR LFCK 100630Z AUTO 00000KT CAVOK 22/10 Q1018 NOSIG
08:00
V
20 °C 10 km+ - 280° 280° 4 kt METAR LFCK 100600Z AUTO 28004KT CAVOK 20/10 Q1018 NOSIG
07:30
V
20 °C 10 km+ - Var Var 2 kt METAR LFCK 100530Z AUTO VRB02KT CAVOK 20/09 Q1018
07:00
V
19 °C 10 km+ - 070° 070° 5 kt METAR LFCK 100500Z AUTO 07005KT CAVOK 19/09 Q1018
06:30
V
20 °C 10 km+ - 060° 060° 3 kt METAR LFCK 100430Z AUTO 06003KT CAVOK 20/09 Q1018
06:00
V
20 °C 10 km+ - 070° 070° 4 kt METAR LFCK 100400Z AUTO 07004KT 040V100 CAVOK 20/09 Q1018
05:30
V
21 °C 10 km+ - 070° 070° 4 kt METAR LFCK 100330Z AUTO 07004KT 020V120 CAVOK 21/09 Q1018
05:00
V
20 °C 10 km+ - 100° 100° 3 kt METAR LFCK 100300Z AUTO 10003KT 020V150 CAVOK 20/08 Q1018
04:30
V
20 °C 10 km+ - 110° 110° 3 kt METAR LFCK 100230Z AUTO 11003KT 070V140 CAVOK 20/08 Q1018
04:00
V
21 °C 10 km+ - 150° 150° 3 kt METAR LFCK 100200Z AUTO 15003KT CAVOK 21/09 Q1018
03:30
V
21 °C 10 km+ - 150° 150° 6 kt METAR LFCK 100130Z AUTO 15006KT CAVOK 21/09 Q1018
03:00
V
21 °C 10 km+ - 080° 080° 5 kt METAR LFCK 100100Z AUTO 08005KT CAVOK 21/09 Q1018
02:30
V
22 °C 10 km+ - 150° 150° 4 kt METAR LFCK 100030Z AUTO 15004KT CAVOK 22/09 Q1018
02:00
V
22 °C 10 km+ - 110° 110° 5 kt METAR LFCK 100000Z AUTO 11005KT CAVOK 22/08 Q1018
01:30
V
22 °C 10 km+ - 120° 120° 5 kt METAR LFCK 092330Z AUTO 12005KT CAVOK 22/09 Q1018
01:00
V
21 °C 10 km+ - 130° 130° 5 kt METAR LFCK 092300Z AUTO 13005KT CAVOK 21/09 Q1018
00:30
V
23 °C 10 km+ - 140° 140° 7 kt METAR LFCK 092230Z AUTO 14007KT CAVOK 23/10 Q1018
00:00
V
23 °C 10 km+ - 130° 130° 4 kt METAR LFCK 092200Z AUTO 13004KT 090V150 CAVOK 23/10 Q1018

August 9, 2022

Time Code Weather Temp. Visibility Ceiling Wind METAR/SPECI
23:30
V
24 °C 10 km+ - 120° 120° 5 kt METAR LFCK 092130Z AUTO 12005KT CAVOK 24/09 Q1018
23:00
V
24 °C 10 km+ - 140° 140° 6 kt METAR LFCK 092100Z AUTO 14006KT CAVOK 24/09 Q1018 NOSIG
22:30
V
26 °C 10 km+ - 140° 140° 4 kt METAR LFCK 092030Z AUTO 14004KT CAVOK 26/08 Q1018 NOSIG
22:00
V
26 °C 10 km+ - 040° 040° 2 kt METAR LFCK 092000Z AUTO 04002KT CAVOK 26/09 Q1018 NOSIG
21:30
V
30 °C 10 km+ - 210° 210° 5 kt METAR LFCK 091930Z AUTO 21005KT CAVOK 30/08 Q1018 NOSIG
21:00
V
32 °C 10 km+ - 260° 260° 4 kt METAR LFCK 091900Z AUTO 26004KT CAVOK 32/07 Q1018 NOSIG
20:30
V
34 °C 10 km+ - 280° 280° 5 kt METAR LFCK 091830Z AUTO 28005KT CAVOK 34/07 Q1017 NOSIG
20:00
V
35 °C 10 km+ - 300° 300° 8 kt METAR LFCK 091800Z AUTO 30008KT CAVOK 35/07 Q1017 NOSIG
19:30
V
35 °C 10 km+ - 280° 280° 7 kt METAR LFCK 091730Z AUTO 28007KT 250V310 CAVOK 35/06 Q1017 NOSIG
19:00
V
35 °C 10 km+ - 280° 280° 6 kt METAR LFCK 091700Z AUTO 28006KT 240V320 CAVOK 35/06 Q1017 NOSIG
18:30
V
36 °C 10 km+ - 280° 280° 4 kt METAR LFCK 091630Z AUTO 28004KT 240V330 CAVOK 36/07 Q1017 NOSIG
18:00
V
35 °C 10 km+ - 290° 290° 7 kt METAR LFCK 091600Z AUTO 29007KT 250V330 CAVOK 35/07 Q1017 NOSIG
17:30
V
36 °C 10 km+ - Var Var 3 kt METAR LFCK 091530Z AUTO VRB03KT CAVOK 36/04 Q1018 NOSIG
17:00
V
36 °C 10 km+ - 250° 250° 8 kt METAR LFCK 091500Z AUTO 25008KT 210V300 CAVOK 36/05 Q1018 NOSIG
Older data

We and third parties follow your internet behavior on our website with cookies. If you continue, we assume you agree with our cookie policy. Learn more